Time,TemperatureF,DewpointF,PressureIn,WindDirection,WindDirectionDegrees,WindSpeedMPH,WindSpeedGustMPH,Humidity,HourlyPrecipIn,Conditions,Clouds,dailyrainin,SoftwareType,DateUTC
2013-06-04 00:02:00,54.0,39.0,30.09,SE,137,0.0,0.0,57,0.00,,,0.00,,2013-06-04 05:02:00,
2013-06-04 00:12:00,54.0,39.0,30.09,SE,137,0.0,0.0,57,0.00,,,0.00,,2013-06-04 05:12:00,
2013-06-04 00:22:00,55.0,38.0,30.09,SW,233,0.0,0.0,53,0.00,,,0.00,,2013-06-04 05:22:00,
2013-06-04 00:32:00,55.0,39.0,30.10,SW,236,0.0,0.0,55,0.00,,,0.00,,2013-06-04 05:32:00,
2013-06-04 00:42:00,55.0,39.0,30.10,SW,236,0.0,0.0,55,0.00,,,0.00,,2013-06-04 05:42:00,
2013-06-04 00:52:00,55.0,38.0,30.10,WSW,240,0.0,2.0,53,0.00,,,0.00,,2013-06-04 05:52:00,
2013-06-04 01:02:00,55.0,38.0,30.10,WSW,245,0.0,0.0,52,0.00,,,0.00,,2013-06-04 06:02:00,
2013-06-04 01:12:00,55.0,38.0,30.10,WSW,245,0.0,0.0,52,0.00,,,0.00,,2013-06-04 06:12:00,
2013-06-04 01:22:00,54.0,38.0,30.09,WSW,250,0.0,0.0,54,0.00,,,0.00,,2013-06-04 06:22:00,
2013-06-04 01:32:00,54.0,38.0,30.09,SW,231,0.0,0.0,55,0.00,,,0.00,,2013-06-04 06:32:00,
2013-06-04 01:42:00,54.0,38.0,30.09,SW,231,0.0,0.0,55,0.00,,,0.00,,2013-06-04 06:42:00,
2013-06-04 01:52:00,54.0,39.0,30.09,WSW,252,0.0,0.0,56,0.00,,,0.00,,2013-06-04 06:52:00,
2013-06-04 02:02:00,54.0,40.0,30.09,WSW,253,0.0,0.0,58,0.00,,,0.00,,2013-06-04 07:02:00,
2013-06-04 02:12:00,54.0,40.0,30.09,WSW,253,0.0,0.0,58,0.00,,,0.00,,2013-06-04 07:12:00,
2013-06-04 02:22:00,53.0,39.0,30.09,WSW,243,0.0,0.0,60,0.00,,,0.00,,2013-06-04 07:22:00,
2013-06-04 02:32:00,53.0,39.0,30.09,WSW,248,0.0,0.0,59,0.00,,,0.00,,2013-06-04 07:32:00,
2013-06-04 02:42:00,53.0,39.0,30.09,WSW,248,0.0,0.0,59,0.00,,,0.00,,2013-06-04 07:42:00,
2013-06-04 02:52:00,54.0,40.0,30.09,WSW,245,0.0,0.0,58,0.00,,,0.00,,2013-06-04 07:52:00,
2013-06-04 03:02:00,55.0,40.0,30.09,WSW,246,0.0,0.0,57,0.00,,,0.00,,2013-06-04 08:02:00,
2013-06-04 03:12:00,54.0,39.0,30.09,WSW,242,0.0,0.0,56,0.00,,,0.00,,2013-06-04 08:12:00,
2013-06-04 03:22:00,54.0,39.0,30.09,WSW,242,0.0,0.0,56,0.00,,,0.00,,2013-06-04 08:22:00,
2013-06-04 03:32:00,54.0,39.0,30.09,WSW,242,0.0,0.0,56,0.00,,,0.00,,2013-06-04 08:32:00,
2013-06-04 03:42:00,54.0,39.0,30.09,WSW,242,0.0,0.0,56,0.00,,,0.00,,2013-06-04 08:42:00,
2013-06-04 03:52:00,54.0,37.0,30.09,SSW,212,0.0,0.0,53,0.00,,,0.00,,2013-06-04 08:52:00,
2013-06-04 04:02:00,54.0,38.0,30.09,SW,236,0.0,0.0,54,0.00,,,0.00,,2013-06-04 09:02:00,
2013-06-04 04:12:00,54.0,38.0,30.09,SW,236,0.0,0.0,54,0.00,,,0.00,,2013-06-04 09:12:00,
2013-06-04 04:22:00,54.0,38.0,30.10,WSW,257,0.0,0.0,55,0.00,,,0.00,,2013-06-04 09:22:00,
2013-06-04 04:33:00,54.0,38.0,30.10,WSW,245,0.0,0.0,55,0.00,,,0.00,,2013-06-04 09:33:00,
2013-06-04 04:43:00,54.0,38.0,30.10,WSW,245,0.0,0.0,55,0.00,,,0.00,,2013-06-04 09:43:00,
2013-06-04 04:53:00,54.0,38.0,30.11,WSW,250,0.0,0.0,55,0.00,,,0.00,,2013-06-04 09:53:00,
2013-06-04 05:02:00,54.0,39.0,30.11,WSW,238,0.0,0.0,56,0.00,,,0.00,,2013-06-04 10:02:00,
2013-06-04 05:12:00,54.0,39.0,30.11,WSW,238,0.0,0.0,56,0.00,,,0.00,,2013-06-04 10:12:00,
2013-06-04 05:22:00,54.0,39.0,30.12,WSW,240,0.0,0.0,57,0.00,,,0.00,,2013-06-04 10:22:00,
2013-06-04 05:32:00,53.0,39.0,30.12,WSW,240,0.0,0.0,59,0.00,,,0.00,,2013-06-04 10:32:00,
2013-06-04 05:42:00,52.0,39.0,30.13,WSW,240,0.0,0.0,62,0.00,,,0.00,,2013-06-04 10:42:00,
2013-06-04 05:53:00,52.0,39.0,30.13,WSW,240,0.0,0.0,62,0.00,,,0.00,,2013-06-04 10:53:00,
2013-06-04 06:02:00,52.0,41.0,30.13,WSW,240,0.0,0.0,67,0.00,,,0.00,,2013-06-04 11:02:00,
2013-06-04 06:12:00,52.0,41.0,30.13,WSW,240,0.0,0.0,67,0.00,,,0.00,,2013-06-04 11:12:00,
2013-06-04 06:22:00,51.0,42.0,30.13,WSW,239,0.0,0.0,72,0.00,,,0.00,,2013-06-04 11:22:00,
2013-06-04 06:32:00,52.0,42.0,30.13,WSW,239,0.0,0.0,69,0.00,,,0.00,,2013-06-04 11:32:00,
2013-06-04 06:42:00,52.0,42.0,30.13,WSW,239,0.0,0.0,69,0.00,,,0.00,,2013-06-04 11:42:00,
2013-06-04 06:52:00,53.0,45.0,30.14,WSW,239,0.0,0.0,74,0.00,,,0.00,,2013-06-04 11:52:00,
2013-06-04 07:02:00,53.0,45.0,30.14,WSW,239,0.0,0.0,73,0.00,,,0.00,,2013-06-04 12:02:00,
2013-06-04 07:12:00,53.0,45.0,30.14,WSW,239,0.0,0.0,73,0.00,,,0.00,,2013-06-04 12:12:00,
2013-06-04 07:22:00,54.0,44.0,30.15,SE,125,0.0,0.0,70,0.00,,,0.00,,2013-06-04 12:22:00,
2013-06-04 07:32:00,54.0,45.0,30.15,East,84,0.0,0.0,71,0.00,,,0.00,,2013-06-04 12:32:00,
2013-06-04 07:42:00,54.0,45.0,30.15,East,84,0.0,0.0,71,0.00,,,0.00,,2013-06-04 12:42:00,
2013-06-04 07:52:00,55.0,44.0,30.15,SE,143,0.0,0.0,67,0.00,,,0.00,,2013-06-04 12:52:00,
2013-06-04 08:02:00,56.0,45.0,30.15,East,83,0.0,0.0,66,0.00,,,0.00,,2013-06-04 13:02:00,
2013-06-04 08:12:00,56.0,45.0,30.15,East,83,0.0,0.0,66,0.00,,,0.00,,2013-06-04 13:12:00,
2013-06-04 08:22:00,59.0,46.0,30.16,South,176,0.0,0.0,63,0.00,,,0.00,,2013-06-04 13:22:00,
2013-06-04 08:32:00,59.0,44.0,30.16,ESE,115,0.0,4.0,57,0.00,,,0.00,,2013-06-04 13:32:00,
2013-06-04 08:42:00,59.0,44.0,30.16,ESE,115,0.0,4.0,57,0.00,,,0.00,,2013-06-04 13:42:00,
2013-06-04 08:52:00,60.0,46.0,30.16,ENE,70,0.0,1.0,59,0.00,,,0.00,,2013-06-04 13:52:00,
2013-06-04 09:02:00,60.0,46.0,30.17,East,81,0.0,4.0,59,0.00,,,0.00,,2013-06-04 14:02:00,
2013-06-04 09:12:00,60.0,46.0,30.17,East,81,0.0,4.0,59,0.00,,,0.00,,2013-06-04 14:12:00,
2013-06-04 09:22:00,62.0,46.0,30.17,East,91,0.0,2.0,55,0.00,,,0.00,,2013-06-04 14:22:00,
2013-06-04 09:32:00,62.0,46.0,30.17,East,97,0.0,1.0,56,0.00,,,0.00,,2013-06-04 14:32:00,
2013-06-04 09:42:00,62.0,46.0,30.17,East,97,0.0,1.0,56,0.00,,,0.00,,2013-06-04 14:42:00,
2013-06-04 09:52:00,62.0,44.0,30.17,SE,142,0.0,5.0,52,0.00,,,0.00,,2013-06-04 14:52:00,
2013-06-04 10:02:00,63.0,45.0,30.16,East,80,0.0,9.0,52,0.00,,,0.00,,2013-06-04 15:02:00,
2013-06-04 10:12:00,63.0,45.0,30.16,East,80,0.0,9.0,52,0.00,,,0.00,,2013-06-04 15:12:00,
2013-06-04 10:22:00,64.0,47.0,30.15,WSW,253,0.0,6.0,54,0.00,,,0.00,,2013-06-04 15:22:00,
2013-06-04 10:33:00,65.0,45.0,30.16,South,170,2.0,6.0,48,0.00,,,0.00,,2013-06-04 15:33:00,
2013-06-04 10:42:00,65.0,45.0,30.16,South,170,2.0,6.0,48,0.00,,,0.00,,2013-06-04 15:42:00,
2013-06-04 10:53:00,67.0,46.0,30.16,SE,131,0.0,6.0,46,0.00,,,0.00,,2013-06-04 15:53:00,
2013-06-04 11:03:00,67.0,45.0,30.17,SSE,166,2.0,5.0,45,0.00,,,0.00,,2013-06-04 16:03:00,
2013-06-04 11:12:00,67.0,45.0,30.17,SSE,166,2.0,5.0,45,0.00,,,0.00,,2013-06-04 16:12:00,
2013-06-04 11:22:00,67.0,46.0,30.17,SSE,150,0.0,6.0,46,0.00,,,0.00,,2013-06-04 16:22:00,
2013-06-04 11:33:00,68.0,46.0,30.17,SW,233,1.0,6.0,45,0.00,,,0.00,,2013-06-04 16:33:00,
2013-06-04 11:42:00,68.0,46.0,30.17,SW,233,1.0,6.0,45,0.00,,,0.00,,2013-06-04 16:42:00,
2013-06-04 11:53:00,68.0,47.0,30.17,SE,145,0.0,0.0,47,0.00,,,0.00,,2013-06-04 16:53:00,
2013-06-04 12:02:00,68.0,46.0,30.17,SE,131,0.0,7.0,46,0.00,,,0.00,,2013-06-04 17:02:00,
2013-06-04 12:12:00,68.0,46.0,30.17,SE,131,0.0,7.0,46,0.00,,,0.00,,2013-06-04 17:12:00,
2013-06-04 12:23:00,69.0,47.0,30.16,SSE,148,1.0,3.0,46,0.00,,,0.00,,2013-06-04 17:23:00,
2013-06-04 12:32:00,70.0,46.0,30.16,ENE,69,0.0,4.0,43,0.00,,,0.00,,2013-06-04 17:32:00,
2013-06-04 12:42:00,70.0,46.0,30.16,ENE,69,0.0,4.0,43,0.00,,,0.00,,2013-06-04 17:42:00,
2013-06-04 12:52:00,69.0,45.0,30.16,SE,138,1.0,7.0,42,0.00,,,0.00,,2013-06-04 17:52:00,
2013-06-04 13:02:00,69.0,45.0,30.16,SE,136,3.0,7.0,42,0.00,,,0.00,,2013-06-04 18:02:00,
2013-06-04 13:12:00,69.0,45.0,30.16,SE,136,3.0,7.0,42,0.00,,,0.00,,2013-06-04 18:12:00,
2013-06-04 13:22:00,69.0,46.0,30.15,ESE,119,0.0,6.0,44,0.00,,,0.00,,2013-06-04 18:22:00,
2013-06-04 13:32:00,69.0,46.0,30.16,SSE,167,1.0,7.0,43,0.00,,,0.00,,2013-06-04 18:32:00,
2013-06-04 13:42:00,69.0,46.0,30.16,SSE,167,1.0,7.0,43,0.00,,,0.00,,2013-06-04 18:42:00,
2013-06-04 13:53:00,69.0,46.0,30.15,SSE,149,1.0,6.0,43,0.00,,,0.00,,2013-06-04 18:53:00,
2013-06-04 14:02:00,70.0,46.0,30.15,SE,140,1.0,4.0,43,0.00,,,0.00,,2013-06-04 19:02:00,
2013-06-04 14:12:00,70.0,46.0,30.15,SE,140,1.0,4.0,43,0.00,,,0.00,,2013-06-04 19:12:00,
2013-06-04 14:22:00,69.0,47.0,30.15,East,81,0.0,6.0,45,0.00,,,0.00,,2013-06-04 19:22:00,
2013-06-04 14:32:00,69.0,48.0,30.15,ENE,68,2.0,4.0,48,0.00,,,0.00,,2013-06-04 19:32:00,
2013-06-04 14:42:00,69.0,48.0,30.15,ENE,68,2.0,4.0,48,0.00,,,0.00,,2013-06-04 19:42:00,
2013-06-04 14:52:00,69.0,46.0,30.14,ESE,103,2.0,7.0,44,0.00,,,0.00,,2013-06-04 19:52:00,
2013-06-04 15:02:00,69.0,46.0,30.14,SSE,150,1.0,9.0,43,0.00,,,0.00,,2013-06-04 20:02:00,
2013-06-04 15:12:00,69.0,46.0,30.14,SSE,150,1.0,9.0,43,0.00,,,0.00,,2013-06-04 20:12:00,
2013-06-04 15:22:00,68.0,45.0,30.14,NE,55,2.0,9.0,43,0.00,,,0.00,,2013-06-04 20:22:00,
2013-06-04 15:32:00,67.0,44.0,30.14,West,274,1.0,6.0,44,0.00,,,0.00,,2013-06-04 20:32:00,
2013-06-04 15:42:00,67.0,44.0,30.14,West,274,1.0,6.0,44,0.00,,,0.00,,2013-06-04 20:42:00,
2013-06-04 15:53:00,67.0,46.0,30.14,SW,215,1.0,6.0,46,0.00,,,0.00,,2013-06-04 20:53:00,
2013-06-04 16:02:00,67.0,47.0,30.14,ENE,76,0.0,4.0,49,0.00,,,0.00,,2013-06-04 21:02:00,
2013-06-04 16:12:00,67.0,47.0,30.14,ENE,76,0.0,4.0,49,0.00,,,0.00,,2013-06-04 21:12:00,
2013-06-04 16:22:00,66.0,45.0,30.14,East,83,1.0,5.0,46,0.00,,,0.00,,2013-06-04 21:22:00,
2013-06-04 16:33:00,66.0,45.0,30.14,East,88,1.0,7.0,46,0.00,,,0.00,,2013-06-04 21:33:00,
2013-06-04 16:42:00,66.0,45.0,30.14,East,88,1.0,7.0,46,0.00,,,0.00,,2013-06-04 21:42:00,
2013-06-04 16:53:00,66.0,46.0,30.14,ENE,58,1.0,5.0,48,0.00,,,0.00,,2013-06-04 21:53:00,
2013-06-04 17:02:00,66.0,45.0,30.14,SSW,201,1.0,6.0,46,0.00,,,0.00,,2013-06-04 22:02:00,
2013-06-04 17:12:00,66.0,45.0,30.14,SSW,201,1.0,6.0,46,0.00,,,0.00,,2013-06-04 22:12:00,
2013-06-04 17:22:00,65.0,44.0,30.14,ENE,58,0.0,4.0,47,0.00,,,0.00,,2013-06-04 22:22:00,
2013-06-04 17:32:00,65.0,45.0,30.13,East,84,1.0,7.0,48,0.00,,,0.00,,2013-06-04 22:32:00,
2013-06-04 17:42:00,65.0,45.0,30.13,East,84,1.0,7.0,48,0.00,,,0.00,,2013-06-04 22:42:00,
2013-06-04 17:52:00,64.0,45.0,30.14,ENE,65,1.0,4.0,50,0.00,,,0.00,,2013-06-04 22:52:00,
2013-06-04 18:02:00,63.0,46.0,30.14,ENE,77,1.0,6.0,54,0.00,,,0.00,,2013-06-04 23:02:00,
2013-06-04 18:12:00,63.0,46.0,30.14,ENE,77,1.0,6.0,54,0.00,,,0.00,,2013-06-04 23:12:00,
2013-06-04 18:22:00,60.0,48.0,30.13,East,101,3.0,8.0,65,0.00,,,0.00,,2013-06-04 23:22:00,
2013-06-04 18:32:00,57.0,47.0,30.12,ENE,68,5.0,11.0,69,0.00,,,0.00,,2013-06-04 23:32:00,
2013-06-04 18:42:00,57.0,47.0,30.12,ENE,68,5.0,11.0,69,0.00,,,0.00,,2013-06-04 23:42:00,
2013-06-04 18:52:00,54.0,46.0,30.09,ENE,65,2.0,10.0,73,0.00,,,0.00,,2013-06-04 23:52:00,
2013-06-04 19:02:00,54.0,46.0,30.09,NNW,340,0.0,7.0,74,0.00,,,0.00,,2013-06-05 00:02:00,
2013-06-04 19:12:00,54.0,46.0,30.09,NNW,340,0.0,7.0,74,0.00,,,0.00,,2013-06-05 00:12:00,
2013-06-04 19:22:00,53.0,45.0,30.11,ENE,65,2.0,6.0,73,0.00,,,0.00,,2013-06-05 00:22:00,
2013-06-04 19:32:00,53.0,45.0,30.11,ESE,112,1.0,10.0,73,0.00,,,0.00,,2013-06-05 00:32:00,
2013-06-04 19:42:00,53.0,45.0,30.11,ESE,112,1.0,10.0,73,0.00,,,0.00,,2013-06-05 00:42:00,
2013-06-04 19:52:00,53.0,44.0,30.14,ENE,65,2.0,5.0,71,0.00,,,0.00,,2013-06-05 00:52:00,
2013-06-04 20:02:00,53.0,44.0,30.14,ENE,77,2.0,4.0,72,0.00,,,0.00,,2013-06-05 01:02:00,
2013-06-04 20:12:00,53.0,44.0,30.14,ENE,77,2.0,4.0,72,0.00,,,0.00,,2013-06-05 01:12:00,
2013-06-04 20:22:00,52.0,43.0,30.14,NNW,345,1.0,7.0,72,0.00,,,0.00,,2013-06-05 01:22:00,
2013-06-04 20:32:00,52.0,43.0,30.14,ENE,61,1.0,5.0,71,0.00,,,0.00,,2013-06-05 01:32:00,
2013-06-04 20:42:00,52.0,43.0,30.14,ENE,61,1.0,5.0,71,0.00,,,0.00,,2013-06-05 01:42:00,
2013-06-04 20:52:00,52.0,43.0,30.13,ENE,68,1.0,5.0,72,0.00,,,0.00,,2013-06-05 01:52:00,
2013-06-04 21:02:00,52.0,43.0,30.14,East,86,3.0,7.0,70,0.00,,,0.00,,2013-06-05 02:02:00,
2013-06-04 21:12:00,52.0,43.0,30.14,East,86,3.0,7.0,70,0.00,,,0.00,,2013-06-05 02:12:00,
2013-06-04 21:22:00,52.0,43.0,30.14,ENE,60,0.0,4.0,70,0.00,,,0.00,,2013-06-05 02:22:00,
2013-06-04 21:32:00,52.0,43.0,30.14,NNE,26,1.0,5.0,70,0.00,,,0.00,,2013-06-05 02:32:00,
2013-06-04 21:42:00,51.0,43.0,30.14,East,82,0.0,4.0,75,0.00,,,0.00,,2013-06-05 02:42:00,
2013-06-04 21:52:00,51.0,43.0,30.14,East,82,0.0,4.0,75,0.00,,,0.00,,2013-06-05 02:52:00,
2013-06-04 22:02:00,51.0,44.0,30.14,East,84,1.0,4.0,76,0.00,,,0.00,,2013-06-05 03:02:00,
2013-06-04 22:12:00,51.0,43.0,30.14,NE,53,0.0,4.0,74,0.00,,,0.00,,2013-06-05 03:12:00,
2013-06-04 22:22:00,51.0,43.0,30.14,NE,53,0.0,4.0,74,0.00,,,0.00,,2013-06-05 03:22:00,
2013-06-04 22:33:00,52.0,43.0,30.14,ESE,122,1.0,8.0,71,0.00,,,0.00,,2013-06-05 03:33:00,
2013-06-04 22:43:00,52.0,43.0,30.14,ESE,122,1.0,8.0,71,0.00,,,0.00,,2013-06-05 03:43:00,
2013-06-04 22:53:00,52.0,43.0,30.15,NW,318,1.0,7.0,72,0.00,,,0.00,,2013-06-05 03:53:00,
2013-06-04 23:02:00,52.0,44.0,30.15,East,96,0.0,9.0,74,0.00,,,0.00,,2013-06-05 04:02:00,
2013-06-04 23:13:00,52.0,44.0,30.15,East,96,0.0,9.0,74,0.00,,,0.00,,2013-06-05 04:13:00,
2013-06-04 23:22:00,52.0,44.0,30.14,East,79,0.0,4.0,75,0.00,,,0.00,,2013-06-05 04:22:00,
2013-06-04 23:33:00,52.0,44.0,30.15,NE,40,1.0,6.0,75,0.00,,,0.00,,2013-06-05 04:33:00,
2013-06-04 23:42:00,52.0,44.0,30.15,NE,40,1.0,6.0,75,0.00,,,0.00,,2013-06-05 04:42:00,
2013-06-04 23:53:00,52.0,45.0,30.15,North,8,1.0,5.0,76,0.00,,,0.00,,2013-06-05 04:53:00,